Time;durP1;ratioP1;P1;durP2;ratioP2;P2;SDS_P1;SDS_P2;PMS_P1;PMS_P2;Temp;Humidity;BMP_temperature;BMP_pressure;BME280_temperature;BME280_humidity;BME280_pressure;Samples;Min_cycle;Max_cycle;Signal;HPM_P1;HPM_P2
2022/06/05 00:01:33;;;;;;;5.50;4.82;;;;;;;15.35;100.00;99272.38;4240005;33;20423;-67
2022/06/05 00:04:12;;;;;;;9.95;5.07;;;;;;;15.39;100.00;99280.78;4240350;33;20038;-67
2022/06/05 00:07:03;;;;;;;8.13;5.18;;;;;;;15.01;100.00;99236.91;4240761;33;20042;-67
2022/06/05 00:09:42;;;;;;;5.60;4.50;;;;;;;15.33;100.00;99276.44;4239637;33;20047;-67
2022/06/05 00:12:14;;;;;;;6.47;4.78;;;;;;;15.33;100.00;99279.94;4240296;33;20038;-67
2022/06/05 00:14:41;;;;;;;6.75;4.87;;;;;;;15.18;100.00;99264.53;4240483;33;20088;-67
2022/06/05 00:17:18;;;;;;;11.75;4.90;;;;;;;15.28;100.00;99274.53;4240474;33;20046;-67
2022/06/05 00:19:52;;;;;;;7.95;4.37;;;;;;;15.01;100.00;99220.62;4240504;33;20077;-67
2022/06/05 00:22:19;;;;;;;7.87;4.57;;;;;;;15.25;100.00;99265.06;4238938;33;20430;-67
2022/06/05 00:24:46;;;;;;;5.07;4.43;;;;;;;15.10;100.00;99246.13;4240076;33;20072;-67
2022/06/05 00:27:18;;;;;;;5.20;4.30;;;;;;;14.83;100.00;99198.44;4239217;33;20103;-67
2022/06/05 00:29:47;;;;;;;5.85;4.78;;;;;;;15.23;100.00;99267.22;4240364;33;20035;-67
2022/06/05 00:32:44;;;;;;;8.50;5.15;;;;;;;15.25;100.00;99265.06;4236828;33;20380;-67
2022/06/05 00:35:15;;;;;;;4.80;4.30;;;;;;;15.26;100.00;99269.41;4239070;33;20056;-67
2022/06/05 00:38:02;;;;;;;7.90;4.80;;;;;;;15.26;100.00;99268.59;4238033;33;20093;-67
2022/06/05 00:40:35;;;;;;;12.85;4.78;;;;;;;15.25;100.00;99275.94;4232382;33;20087;-67
2022/06/05 00:43:08;;;;;;;5.82;5.22;;;;;;;14.94;100.00;99230.97;4240095;33;20074;-68
2022/06/05 00:45:35;;;;;;;6.25;4.45;;;;;;;15.17;100.00;99276.50;4227307;33;20054;-67
2022/06/05 00:48:02;;;;;;;9.77;5.07;;;;;;;14.96;100.00;99266.75;4240701;33;20413;-67
2022/06/05 00:50:31;;;;;;;7.10;3.97;;;;;;;15.07;100.00;99276.50;4240699;33;20038;-68
2022/06/05 00:53:01;;;;;;;8.68;4.82;;;;;;;15.04;100.00;99274.31;4238561;33;20426;-68
2022/06/05 00:55:35;;;;;;;7.93;4.90;;;;;;;15.03;100.00;99273.50;4240463;33;20089;-68
2022/06/05 00:58:01;;;;;;;5.32;4.80;;;;;;;14.97;100.00;99280.03;4239873;33;20030;-67
2022/06/05 01:00:32;;;;;;;5.65;4.25;;;;;;;14.68;100.00;99233.69;4240492;33;20535;-67
2022/06/05 01:03:01;;;;;;;6.25;4.90;;;;;;;14.84;100.00;99275.97;4238845;33;20412;-68
2022/06/05 01:05:34;;;;;;;4.95;4.32;;;;;;;14.80;100.00;99280.28;4230638;33;20035;-68
2022/06/05 01:08:02;;;;;;;5.18;4.55;;;;;;;14.51;100.00;99232.03;4242806;33;20412;-67
2022/06/05 01:10:55;;;;;;;5.72;4.25;;;;;;;14.77;100.00;99270.00;4242662;33;20400;-67
2022/06/05 01:13:37;;;;;;;4.87;4.22;;;;;;;14.86;100.00;99286.53;4241549;33;20093;-67
2022/06/05 01:16:30;;;;;;;11.82;4.45;;;;;;;14.56;100.00;99252.09;4242239;33;20459;-68
2022/06/05 01:19:17;;;;;;;5.35;4.85;;;;;;;14.94;100.00;99296.03;4242707;33;20373;-67
2022/06/05 01:22:02;;;;;;;8.30;5.10;;;;;;;14.99;100.00;99298.72;4228008;33;20038;-68
2022/06/05 01:24:56;;;;;;;10.95;5.12;;;;;;;14.99;100.00;99294.13;4242634;33;20170;-67
2022/06/05 01:27:27;;;;;;;6.68;5.50;;;;;;;14.94;100.00;99285.19;4241089;33;20104;-68
2022/06/05 01:30:10;;;;;;;7.75;5.15;;;;;;;14.92;100.00;99287.34;4235282;33;20064;-66
2022/06/05 01:32:49;;;;;;;;;;;;;;;14.87;100.00;99280.84;4241606;33;20071;-68
2022/06/05 01:35:29;;;;;;;8.88;5.45;;;;;;;14.85;100.00;99293.03;4242456;33;19944;-67
2022/06/05 01:38:03;;;;;;;6.20;5.07;;;;;;;14.73;100.00;99298.75;4242434;33;20042;-67
2022/06/05 01:40:34;;;;;;;9.02;5.80;;;;;;;14.80;100.00;99312.81;4240034;33;20043;-68
2022/06/05 01:43:07;;;;;;;14.57;8.80;;;;;;;14.80;100.00;99310.09;4242442;33;20054;-67
2022/06/05 01:45:44;;;;;;;8.85;6.75;;;;;;;14.38;100.00;99245.31;4242428;33;20549;-67
2022/06/05 01:48:17;;;;;;;9.05;6.60;;;;;;;14.76;100.00;99300.91;4240279;33;20042;-68
2022/06/05 01:50:47;;;;;;;7.75;5.43;;;;;;;14.69;100.00;99300.34;4242040;33;20054;-66
2022/06/05 01:53:21;;;;;;;8.38;6.45;;;;;;;14.32;100.00;99263.44;4242072;33;20120;-66
2022/06/05 01:55:55;;;;;;;10.35;6.35;;;;;;;14.53;100.00;99313.88;4241049;33;20058;-67
2022/06/05 01:58:26;;;;;;;8.70;6.03;;;;;;;14.49;100.00;99315.47;4242389;33;20042;-66
2022/06/05 02:00:59;;;;;;;9.25;6.20;;;;;;;14.41;100.00;99321.44;4241713;33;20528;-66
2022/06/05 02:03:34;;;;;;;10.95;6.35;;;;;;;14.27;100.00;99320.31;4242222;33;20388;-67
2022/06/05 02:06:19;;;;;;;10.15;6.62;;;;;;;14.22;100.00;99306.75;4240479;33;20068;-68
2022/06/05 02:08:49;;;;;;;15.23;5.93;;;;;;;14.19;100.00;99301.88;4242073;33;20038;-67
2022/06/05 02:11:28;;;;;;;9.85;5.72;;;;;;;13.78;100.00;99270.88;4241387;33;20043;-68
2022/06/05 02:13:58;;;;;;;8.27;5.53;;;;;;;14.07;100.00;99316.47;4241805;33;20062;-67
2022/06/05 02:16:28;;;;;;;10.45;6.47;;;;;;;13.96;100.00;99315.63;4241616;33;20054;-68
2022/06/05 02:18:59;;;;;;;8.75;5.22;;;;;;;13.71;100.00;99275.72;4240572;33;20065;-67
2022/06/05 02:21:26;;;;;;;7.93;5.93;;;;;;;14.04;100.00;99348.66;4239854;33;20035;-68
2022/06/05 02:23:53;;;;;;;7.70;5.10;;;;;;;13.74;100.00;99296.03;4241344;33;20109;-68
2022/06/05 02:26:19;;;;;;;24.30;6.85;;;;;;;13.91;100.00;99328.28;4240604;33;20050;-68
2022/06/05 02:28:46;;;;;;;8.73;6.20;;;;;;;13.96;100.00;99342.69;4241805;33;20449;-68
2022/06/05 02:31:37;;;;;;;13.55;6.15;;;;;;;13.93;100.00;99342.41;4239529;33;20086;-68
2022/06/05 02:34:14;;;;;;;6.85;5.72;;;;;;;14.04;100.00;99343.25;4240387;33;20441;-68
2022/06/05 02:36:59;;;;;;;7.57;5.35;;;;;;;13.78;100.00;99292.50;4241588;33;20054;-68
2022/06/05 02:39:59;;;;;;;13.02;5.20;;;;;;;14.15;100.00;99337.63;4241746;33;20100;-68
2022/06/05 02:42:35;;;;;;;6.82;5.03;;;;;;;14.14;100.00;99338.69;4239339;33;20072;-69
2022/06/05 02:45:37;;;;;;;8.93;5.32;;;;;;;14.08;100.00;99339.75;4241596;33;20047;-68
2022/06/05 02:48:08;;;;;;;12.30;5.40;;;;;;;13.73;100.00;99295.19;4209241;34;20076;-68
2022/06/05 02:50:44;;;;;;;5.60;5.07;;;;;;;13.95;100.00;99343.75;4233628;33;20159;-68
2022/06/05 02:53:12;;;;;;;6.90;5.75;;;;;;;13.83;100.00;99345.03;4240912;33;20034;-68
2022/06/05 02:55:39;;;;;;;14.25;6.55;;;;;;;13.86;100.00;99347.22;4239261;33;20076;-68
2022/06/05 02:58:06;;;;;;;7.47;5.03;;;;;;;13.57;100.00;99301.63;4241535;33;20055;-68
2022/06/05 03:00:35;;;;;;;7.25;5.47;;;;;;;13.76;100.00;99348.00;4241072;33;20408;-68
2022/06/05 03:05:47;;;;;;;8.02;5.43;;;;;;;13.67;100.00;99323.31;4241528;33;20400;-68
2022/06/05 03:08:16;;;;;;;11.07;6.35;;;;;;;13.78;100.00;99352.06;4240966;33;20412;-68
2022/06/05 03:10:44;;;;;;;6.57;4.87;;;;;;;13.46;100.00;99300.75;4241029;33;20086;-68
2022/06/05 03:13:12;;;;;;;9.18;5.37;;;;;;;13.64;100.00;99350.88;4240207;33;20056;-69
2022/06/05 03:15:41;;;;;;;11.00;5.40;;;;;;;13.35;100.00;99305.28;4240655;33;20058;-68
2022/06/05 03:18:09;;;;;;;10.75;5.50;;;;;;;13.61;100.00;99352.25;4241235;33;20080;-68
2022/06/05 03:20:36;;;;;;;9.05;5.55;;;;;;;13.57;100.00;99361.16;4241065;33;20075;-68
2022/06/05 03:23:02;;;;;;;7.70;5.60;;;;;;;13.55;100.00;99352.47;4240372;33;20089;-68
2022/06/05 03:25:29;;;;;;;6.32;5.68;;;;;;;13.46;100.00;99356.75;4227305;33;20362;-68
2022/06/05 03:27:57;;;;;;;9.52;5.37;;;;;;;13.08;100.00;99300.78;4241108;33;20489;-68
2022/06/05 03:30:23;;;;;;;8.95;5.93;;;;;;;13.37;100.00;99354.53;4241015;33;20053;-68
2022/06/05 03:32:49;;;;;;;6.47;4.90;;;;;;;13.38;100.00;99353.44;4239020;33;20075;-68
2022/06/05 03:35:16;;;;;;;8.52;5.78;;;;;;;13.10;100.00;99308.63;4237536;33;20039;-69
2022/06/05 03:37:42;;;;;;;14.77;5.35;;;;;;;13.36;100.00;99350.19;4241128;33;20709;-68
2022/06/05 03:40:15;;;;;;;8.15;5.20;;;;;;;13.38;100.00;99350.75;4228034;33;20038;-68
2022/06/05 03:42:42;;;;;;;7.70;5.57;;;;;;;13.38;100.00;99358.84;4239530;33;20050;-67
2022/06/05 03:45:15;;;;;;;10.55;6.37;;;;;;;13.34;100.00;99365.88;4240384;33;20042;-68
2022/06/05 03:47:42;;;;;;;7.90;5.82;;;;;;;13.07;100.00;99315.34;4240730;33;20074;-67
2022/06/05 03:50:10;;;;;;;7.32;5.55;;;;;;;13.38;100.00;99375.06;4240797;33;20056;-68
2022/06/05 03:52:37;;;;;;;7.62;5.20;;;;;;;13.28;100.00;99337.13;4240786;33;20034;-68
2022/06/05 03:55:04;;;;;;;9.07;5.90;;;;;;;13.50;100.00;99365.97;4239622;33;20339;-69
2022/06/05 03:57:31;;;;;;;10.43;5.40;;;;;;;13.23;100.00;99321.69;4240217;33;20058;-68
2022/06/05 03:59:58;;;;;;;8.50;5.37;;;;;;;13.55;100.00;99360.59;4240494;33;20050;-68
2022/06/05 04:02:25;;;;;;;6.70;5.43;;;;;;;13.48;100.00;99354.59;4240572;33;20046;-68
2022/06/05 04:04:52;;;;;;;8.93;4.90;;;;;;;13.20;100.00;99315.97;4239247;33;20039;-69
2022/06/05 04:07:20;;;;;;;10.57;6.28;;;;;;;13.52;100.00;99350.31;4240759;33;20046;-68
2022/06/05 04:09:46;;;;;;;11.60;5.87;;;;;;;13.54;100.00;99351.66;4240725;33;20042;-69
2022/06/05 04:12:12;;;;;;;11.45;6.22;;;;;;;13.36;100.00;99301.50;4240902;33;20081;-68
2022/06/05 04:14:39;;;;;;;9.02;4.97;;;;;;;13.72;100.00;99347.72;4240994;33;20373;-68
2022/06/05 04:17:05;;;;;;;5.82;5.07;;;;;;;13.44;100.00;99300.22;4239034;33;20042;-68
2022/06/05 04:19:32;;;;;;;6.55;5.78;;;;;;;13.86;100.00;99341.81;4240488;33;20038;-68
2022/06/05 04:21:58;;;;;;;11.20;5.03;;;;;;;13.65;100.00;99328.19;4239888;33;20077;-68
2022/06/05 04:24:24;;;;;;;11.30;5.62;;;;;;;13.61;100.00;99308.97;4240477;33;20483;-68
2022/06/05 04:26:51;;;;;;;13.73;5.80;;;;;;;13.84;100.00;99360.22;4239170;33;20393;-69
2022/06/05 04:29:17;;;;;;;11.63;5.57;;;;;;;13.63;100.00;99327.63;4240684;33;20392;-70
2022/06/05 04:31:45;;;;;;;8.98;5.50;;;;;;;13.32;100.00;99273.31;4238046;33;20054;-69
2022/06/05 04:34:15;;;;;;;9.38;5.87;;;;;;;13.74;100.00;99306.87;4240277;33;20060;-69
2022/06/05 04:36:42;;;;;;;11.15;5.30;;;;;;;13.95;100.00;99351.06;4240368;33;20034;-69
2022/06/05 04:39:09;;;;;;;9.40;5.50;;;;;;;14.00;100.00;99364.62;4241208;33;20339;-69
2022/06/05 04:41:36;;;;;;;9.07;5.53;;;;;;;13.98;100.00;99347.84;4240599;33;20054;-69
2022/06/05 04:44:05;;;;;;;12.15;5.53;;;;;;;14.14;100.00;99365.75;4241708;33;20106;-68
2022/06/05 04:46:33;;;;;;;13.62;5.37;;;;;;;14.20;100.00;99361.19;4240429;33;20072;-69
2022/06/05 04:48:59;;;;;;;10.52;5.53;;;;;;;14.21;100.00;99362.00;4241640;33;20041;-69
2022/06/05 04:51:34;;;;;;;11.98;5.85;;;;;;;14.04;100.00;99352.19;4238814;33;20069;-69
2022/06/05 04:54:01;;;;;;;6.25;5.43;;;;;;;14.19;100.00;99366.88;4241065;33;20066;-69
2022/06/05 04:56:29;;;;;;;11.85;5.93;;;;;;;14.22;100.00;99350.91;4241017;33;20404;-68
2022/06/05 04:58:56;;;;;;;18.70;6.70;;;;;;;14.09;100.00;99314.31;4242013;33;20067;-68
2022/06/05 05:01:26;;;;;;;9.68;5.28;;;;;;;14.34;100.00;99361.47;4240828;33;20077;-68
2022/06/05 05:03:55;;;;;;;8.20;5.43;;;;;;;14.05;100.00;99332.16;4238312;33;20486;-68
2022/06/05 05:06:22;;;;;;;9.95;5.95;;;;;;;14.31;100.00;99364.72;4241774;33;20072;-69
2022/06/05 05:08:49;;;;;;;10.70;5.45;;;;;;;14.35;100.00;99365.84;4241779;33;20106;-68
2022/06/05 05:11:17;;;;;;;9.65;6.28;;;;;;;14.11;100.00;99339.22;4241614;33;20083;-68
2022/06/05 05:13:43;;;;;;;8.48;5.28;;;;;;;14.10;100.00;99326.75;4239516;33;20086;-69
2022/06/05 05:16:11;;;;;;;10.27;5.15;;;;;;;14.42;100.00;99377.22;4240155;33;20058;-69
2022/06/05 05:18:39;;;;;;;6.20;5.32;;;;;;;14.50;100.00;99374.00;4241575;33;20027;-68
2022/06/05 05:21:11;;;;;;;6.87;5.05;;;;;;;14.66;100.00;99387.59;4241422;33;20050;-69
2022/06/05 05:23:38;;;;;;;7.78;5.32;;;;;;;14.62;100.00;99386.53;4228238;33;20043;-70
2022/06/05 05:26:19;;;;;;;9.00;5.90;;;;;;;14.66;100.00;99387.59;4239929;33;20072;-69
2022/06/05 05:28:46;;;;;;;6.97;5.43;;;;;;;14.73;100.00;99377.34;4239810;33;20100;-68
2022/06/05 05:31:37;;;;;;;7.07;5.62;;;;;;;14.53;100.00;99378.91;4240276;33;20078;-69
2022/06/05 05:34:06;;;;;;;7.90;5.53;;;;;;;14.62;100.00;99378.41;4238744;33;20068;-68
2022/06/05 05:36:34;;;;;;;9.88;5.95;;;;;;;14.56;100.00;99336.09;4240972;33;20085;-69
2022/06/05 05:42:04;;;;;;;9.30;5.03;;;;;;;14.91;100.00;99367.87;4239766;33;20038;-68
2022/06/05 05:44:45;;;;;;;13.25;5.65;;;;;;;14.78;100.00;99358.38;4239940;33;20034;-69
2022/06/05 05:47:17;;;;;;;6.75;5.32;;;;;;;15.06;100.00;99396.88;4240073;33;20062;-68
2022/06/05 05:49:52;;;;;;;5.82;5.25;;;;;;;15.06;100.00;99386.03;4240257;33;20396;-68
2022/06/05 05:52:19;;;;;;;11.48;5.32;;;;;;;15.09;100.00;99390.91;4240096;33;20045;-69
2022/06/05 05:54:45;;;;;;;6.97;5.55;;;;;;;15.24;100.00;99390.94;4239797;33;20089;-68
2022/06/05 05:57:11;;;;;;;8.30;5.50;;;;;;;15.23;100.00;99381.16;4239332;33;20050;-68
2022/06/05 05:59:38;;;;;;;9.20;5.60;;;;;;;15.36;100.00;99389.84;4227748;33;20058;-68
2022/06/05 06:02:10;;;;;;;10.60;5.53;;;;;;;15.20;100.00;99359.19;4240154;33;20047;-68
2022/06/05 06:04:38;;;;;;;11.63;5.75;;;;;;;15.17;100.00;99349.72;4234575;33;20340;-68
2022/06/05 06:07:05;;;;;;;7.62;5.78;;;;;;;15.61;100.00;99389.00;4241921;33;20063;-68
2022/06/05 06:09:33;;;;;;;6.75;5.57;;;;;;;15.52;100.00;99388.72;4241985;33;20050;-67
2022/06/05 06:12:00;;;;;;;6.70;5.65;;;;;;;14.97;100.00;99300.91;4241922;33;20034;-68
2022/06/05 06:14:27;;;;;;;6.37;5.05;;;;;;;15.54;100.00;99389.28;4239320;33;20058;-69
2022/06/05 06:16:53;;;;;;;10.63;5.80;;;;;;;15.61;100.00;99387.09;4241049;33;20085;-68
2022/06/05 06:19:20;;;;;;;7.03;5.43;;;;;;;15.41;100.00;99338.28;4241865;33;20049;-69
2022/06/05 06:21:46;;;;;;;10.02;5.50;;;;;;;15.59;100.00;99343.13;4241523;33;20089;-68
2022/06/05 06:24:13;;;;;;;8.27;5.15;;;;;;;15.97;100.00;99384.31;4242001;33;20090;-69
2022/06/05 06:26:41;;;;;;;8.25;5.15;;;;;;;15.86;100.00;99344.72;4228868;33;20076;-70
2022/06/05 06:29:09;;;;;;;6.15;4.45;;;;;;;16.25;100.00;99384.75;4238123;33;20050;-69
2022/06/05 06:31:38;;;;;;;4.62;3.33;;;;;;;16.25;100.00;99382.03;4226686;34;20070;-69
2022/06/05 06:34:06;;;;;;;5.30;3.80;;;;;;;16.28;100.00;99378.75;4238726;33;20039;-69
2022/06/05 06:36:35;;;;;;;7.03;4.47;;;;;;;16.27;100.00;99371.69;4241127;33;20039;-69
2022/06/05 06:39:02;;;;;;;9.55;4.20;;;;;;;16.43;100.00;99379.78;4235533;33;20074;-68
2022/06/05 06:41:28;;;;;;;6.50;3.87;;;;;;;16.52;100.00;99378.91;4227850;33;20031;-69
2022/06/05 06:43:55;;;;;;;6.07;3.87;;;;;;;16.33;100.00;99342.59;4239893;33;20051;-69
2022/06/05 06:46:21;;;;;;;7.25;3.97;;;;;;;16.44;100.00;99381.41;4227878;33;20458;-69
2022/06/05 06:48:48;;;;;;;6.50;3.85;;;;;;;16.43;100.00;99355.31;4239327;33;20057;-70
2022/06/05 06:51:16;;;;;;;6.40;3.70;;;;;;;16.51;100.00;99392.78;4237438;33;20051;-68
2022/06/05 06:53:43;;;;;;;6.10;3.90;;;;;;;16.56;100.00;99391.94;4229557;33;20449;-68
2022/06/05 06:56:16;;;;;;;15.88;4.70;;;;;;;16.32;100.00;99339.09;4226238;34;20064;-68
2022/06/05 06:58:43;;;;;;;9.50;3.75;;;;;;;16.70;100.00;99377.47;4232769;33;20396;-70
2022/06/05 07:01:10;;;;;;;7.10;4.18;;;;;;;16.48;100.00;99333.53;4238097;33;20072;-69
2022/06/05 07:03:37;;;;;;;7.40;3.90;;;;;;;16.89;100.00;99382.25;4241176;33;20042;-68
2022/06/05 07:06:06;;;;;;;8.73;3.97;;;;;;;16.37;100.00;99316.50;4239904;33;20051;-68
2022/06/05 07:08:34;;;;;;;5.22;4.47;;;;;;;16.77;100.00;99373.59;4239813;33;20085;-71
2022/06/05 07:11:00;;;;;;;5.47;3.53;;;;;;;17.00;100.00;99389.22;4239430;33;20043;-69
2022/06/05 07:13:27;;;;;;;6.05;3.85;;;;;;;16.97;100.00;99384.34;4240884;33;20068;-69
2022/06/05 07:15:53;;;;;;;5.43;3.50;;;;;;;17.03;100.00;99382.44;4240846;33;20080;-69
2022/06/05 07:18:20;;;;;;;6.97;3.50;;;;;;;17.13;100.00;99386.97;4239524;33;20039;-70
2022/06/05 07:20:46;;;;;;;8.50;3.30;;;;;;;16.84;100.00;99333.31;4237698;33;20068;-69
2022/06/05 07:23:13;;;;;;;8.90;3.37;;;;;;;17.11;100.00;99389.97;4240058;33;20515;-69
2022/06/05 07:25:46;;;;;;;4.20;3.10;;;;;;;17.15;100.00;99382.88;4238827;33;20042;-69
2022/06/05 07:28:14;;;;;;;6.78;3.20;;;;;;;17.32;100.00;99379.72;4240301;33;20097;-70
2022/06/05 07:30:44;;;;;;;6.20;3.15;;;;;;;17.38;100.00;99378.59;4236389;33;20053;-70
2022/06/05 07:33:11;;;;;;;4.05;2.72;;;;;;;17.42;100.00;99379.66;4238381;33;20080;-69
2022/06/05 07:35:37;;;;;;;5.32;3.60;;;;;;;17.60;100.00;99374.59;4240360;33;20053;-69
2022/06/05 07:38:04;;;;;;;9.32;3.37;;;;;;;17.70;100.00;99377.19;4238647;33;20041;-69
2022/06/05 07:40:30;;;;;;;5.55;3.28;;;;;;;17.36;100.00;99326.38;4238067;33;20038;-70
2022/06/05 07:42:57;;;;;;;3.62;2.47;;;;;;;17.67;100.00;99369.59;4238309;33;20471;-68
2022/06/05 07:45:23;;;;;;;7.25;3.28;;;;;;;17.41;100.00;99312.69;4240219;33;20080;-69
2022/06/05 07:47:49;;;;;;;5.50;3.12;;;;;;;17.42;100.00;99329.81;4239885;33;20046;-69
2022/06/05 07:50:16;;;;;;;5.62;2.75;;;;;;;17.47;100.00;99328.97;4240159;33;20056;-69
2022/06/05 07:55:27;;;;;;;3.35;2.58;;;;;;;17.59;100.00;99334.84;4240758;33;20046;-69
2022/06/05 07:57:54;;;;;;;7.18;3.15;;;;;;;17.90;100.00;99356.31;4227740;33;20140;-69
2022/06/05 08:00:23;;;;;;;4.12;3.78;;;;;;;18.06;100.00;99371.38;4240456;33;20068;-69
2022/06/05 08:02:50;;;;;;;3.83;3.20;;;;;;;17.78;100.00;99332.97;4238353;33;20043;-69
2022/06/05 08:05:16;;;;;;;6.10;3.15;;;;;;;18.21;100.00;99366.84;4240684;33;20450;-69
2022/06/05 08:07:42;;;;;;;4.20;3.05;;;;;;;18.05;100.00;99325.34;4240513;33;20078;-70
2022/06/05 08:10:10;;;;;;;2.72;2.42;;;;;;;18.36;100.00;99369.34;4240626;33;20434;-71
2022/06/05 08:12:36;;;;;;;2.40;2.28;;;;;;;18.37;100.00;99371.00;4239691;33;20080;-72
2022/06/05 08:15:09;;;;;;;2.70;2.50;;;;;;;18.33;100.00;99369.94;4241467;33;20055;-70
2022/06/05 08:17:36;;;;;;;5.60;2.72;;;;;;;18.47;100.00;99370.84;4240623;33;20034;-70
2022/06/05 08:20:05;;;;;;;4.85;2.92;;;;;;;18.53;100.00;99368.87;4240447;33;20082;-69
2022/06/05 08:22:32;;;;;;;2.92;2.67;;;;;;;18.02;100.00;99294.03;4239699;33;20475;-70
2022/06/05 08:24:59;;;;;;;2.78;2.50;;;;;;;18.47;100.00;99364.59;4241170;33;20101;-69
2022/06/05 08:27:26;;;;;;;5.55;1.98;;;;;;;18.28;100.00;99334.56;4243360;33;20066;-70
2022/06/05 08:29:57;;;;;;;2.55;1.92;;;;;;;18.20;100.00;99329.78;4242896;33;20123;-69
2022/06/05 08:32:26;;;;;;;5.45;2.40;;;;;;;18.52;100.00;99372.69;4240174;33;20059;-68
2022/06/05 08:34:53;;;;;;;3.85;2.30;;;;;;;18.26;100.00;99339.53;4239079;33;20070;-69
2022/06/05 08:43:12;;;;;;;4.68;2.10;;;;;;;18.62;100.00;99355.34;4242983;33;20058;-70
2022/06/05 08:45:46;;;;;;;2.87;2.10;;;;;;;18.58;100.00;99332.53;4240431;33;20445;-70
2022/06/05 08:48:28;;;;;;;2.37;2.28;;;;;;;18.99;100.00;99381.06;4237818;33;20068;-71
2022/06/05 08:51:23;;;;;;;2.50;2.30;;;;;;;18.99;100.00;99381.06;4239122;33;20076;-71
2022/06/05 08:53:57;;;;;;;3.92;2.33;;;;;;;18.73;100.00;99343.22;4237293;33;20085;-70
2022/06/05 08:56:35;;;;;;;2.30;2.08;;;;;;;19.00;100.00;99382.66;4237788;33;20094;-68
2022/06/05 08:59:18;;;;;;;3.15;2.05;;;;;;;18.69;100.00;99340.25;4239422;33;20077;-69
2022/06/05 09:01:51;;;;;;;2.62;1.98;;;;;;;18.65;100.00;99335.69;4240346;33;20058;-68
2022/06/05 09:04:17;;;;;;;2.20;2.00;;;;;;;19.02;100.00;99380.47;4242256;33;20408;-69
2022/06/05 09:06:50;;;;;;;2.85;2.28;;;;;;;19.01;100.00;99373.38;4241913;33;20096;-69
2022/06/05 09:09:37;;;;;;;1.80;1.70;;;;;;;19.11;100.00;99373.19;4242450;33;20054;-69
2022/06/05 09:12:11;;;;;;;2.17;1.52;;;;;;;19.21;89.41;99392.16;4242268;33;20042;-69
2022/06/05 09:14:49;;;;;;;1.98;1.85;;;;;;;19.11;80.35;99351.34;4241219;33;20068;-70
2022/06/05 09:17:18;;;;;;;1.30;1.20;;;;;;;19.47;81.17;99380.78;4242105;33;20054;-69
2022/06/05 09:19:48;;;;;;;1.92;1.73;;;;;;;19.42;80.86;99391.81;4242367;33;20050;-68
2022/06/05 09:22:42;;;;;;;3.17;1.80;;;;;;;19.45;84.13;99388.47;4242586;33;20441;-68
2022/06/05 09:25:39;;;;;;;3.70;1.35;;;;;;;19.13;89.41;99343.69;4240790;33;20042;-67
2022/06/05 09:28:18;;;;;;;4.45;1.80;;;;;;;19.48;85.63;99387.88;4236996;33;20046;-68
2022/06/05 09:31:24;;;;;;;1.75;1.55;;;;;;;19.29;89.57;99346.97;4243061;33;20050;-68
2022/06/05 09:33:55;;;;;;;1.83;1.73;;;;;;;19.64;88.08;99391.16;4229237;33;20133;-69
2022/06/05 09:36:27;;;;;;;2.05;1.45;;;;;;;19.58;91.50;99393.16;4241638;33;20442;-69
2022/06/05 09:39:29;;;;;;;2.85;1.92;;;;;;;19.44;93.70;99391.50;4241560;33;20042;-69
2022/06/05 09:42:02;;;;;;;3.92;1.87;;;;;;;19.59;97.27;99388.47;4203712;33;20054;-69
2022/06/05 09:44:34;;;;;;;3.87;1.87;;;;;;;19.83;100.00;99388.34;4242290;33;20046;-69
2022/06/05 09:47:04;;;;;;;2.40;2.20;;;;;;;19.76;100.00;99385.22;4239239;33;20042;-69
2022/06/05 09:49:39;;;;;;;2.97;2.67;;;;;;;19.77;100.00;99395.84;4242142;33;20165;-68
2022/06/05 09:52:20;;;;;;;7.93;3.70;;;;;;;19.78;100.00;99396.63;4241925;33;20072;-68
2022/06/05 09:55:00;;;;;;;2.10;2.00;;;;;;;19.79;100.00;99368.22;4240349;33;20072;-68
2022/06/05 10:00:41;;;;;;;2.92;1.62;;;;;;;19.81;98.40;99352.31;4235782;33;20075;-68
2022/06/05 10:03:21;;;;;;;1.70;1.60;;;;;;;19.51;99.00;99338.09;4241725;33;20054;-68
2022/06/05 10:06:26;;;;;;;1.77;1.37;;;;;;;19.88;96.39;99380.06;4240202;33;20043;-68
2022/06/05 10:09:01;;;;;;;1.92;1.73;;;;;;;19.98;94.45;99345.47;4241873;33;20514;-68
2022/06/05 10:11:33;;;;;;;2.47;1.90;;;;;;;20.16;87.53;99371.84;4240531;33;20064;-69
2022/06/05 10:14:25;;;;;;;1.77;1.60;;;;;;;20.36;94.32;99378.00;4241465;33;20496;-69
2022/06/05 10:17:15;;;;;;;1.48;1.48;;;;;;;20.41;92.47;99369.69;4238182;33;20043;-73
2022/06/05 10:19:52;;;;;;;1.83;1.73;;;;;;;20.59;97.47;99373.41;4241279;33;20051;-69
2022/06/05 10:22:27;;;;;;;3.15;1.42;;;;;;;20.75;91.53;99362.94;4228231;33;20335;-69
2022/06/05 10:25:16;;;;;;;1.77;1.67;;;;;;;20.67;89.57;99361.75;4240342;33;20062;-69
2022/06/05 10:27:51;;;;;;;1.42;1.42;;;;;;;20.77;95.43;99366.19;4241253;33;20046;-68
2022/06/05 10:30:20;;;;;;;2.03;1.67;;;;;;;20.77;92.88;99360.72;4239508;33;20042;-70
2022/06/05 10:32:57;;;;;;;5.12;3.53;;;;;;;20.56;96.59;99360.34;4239686;33;20686;-69
2022/06/05 10:35:35;;;;;;;2.12;1.98;;;;;;;20.83;100.00;99359.47;4241005;33;20046;-68
2022/06/05 10:38:13;;;;;;;2.58;2.28;;;;;;;21.04;96.47;99366.09;4239819;33;20039;-70
2022/06/05 10:40:46;;;;;;;1.70;1.60;;;;;;;20.84;90.62;99350.16;4227303;33;20039;-69
2022/06/05 10:43:22;;;;;;;1.35;1.33;;;;;;;20.81;94.20;99323.41;4241211;33;20034;-69
2022/06/05 10:45:52;;;;;;;4.10;1.40;;;;;;;20.78;80.61;99313.09;4238810;33;20067;-71
2022/06/05 10:48:41;;;;;;;1.62;1.50;;;;;;;21.18;83.24;99343.28;4240960;33;20406;-68
2022/06/05 10:51:20;;;;;;;1.80;1.70;;;;;;;21.23;75.17;99346.69;4240761;33;20046;-67
2022/06/05 10:54:00;;;;;;;3.58;1.70;;;;;;;21.25;74.97;99308.06;4240388;33;20328;-68
2022/06/05 10:56:50;;;;;;;2.03;1.77;;;;;;;21.57;82.43;99317.09;4241021;33;20096;-68
2022/06/05 10:59:35;;;;;;;1.45;1.42;;;;;;;22.27;66.84;99347.47;4241120;33;20062;-69
2022/06/05 11:02:28;;;;;;;3.12;1.90;;;;;;;22.27;69.41;99355.69;4240659;33;20039;-68
2022/06/05 11:05:44;;;;;;;5.28;2.58;;;;;;;22.51;66.28;99347.03;4240784;33;20050;-69
2022/06/05 11:08:29;;;;;;;1.80;1.73;;;;;;;22.29;67.32;99326.03;4223680;33;20182;-68
2022/06/05 11:14:16;;;;;;;;;;;;;;;23.62;62.78;99353.06;4226275;34;20373;-68
2022/06/05 11:16:51;;;;;;;2.30;1.60;;;;;;;23.81;56.13;99350.72;4225315;34;19952;-69
2022/06/05 11:19:46;;;;;;;1.92;1.85;;;;;;;24.40;57.57;99349.91;4226534;34;20151;-68
2022/06/05 11:22:15;;;;;;;1.55;1.52;;;;;;;24.54;53.54;99344.16;4227018;34;20035;-68
2022/06/05 11:24:57;;;;;;;1.65;1.60;;;;;;;24.13;53.86;99345.72;4225378;34;20080;-70
2022/06/05 11:27:42;;;;;;;2.62;2.15;;;;;;;24.08;52.75;99345.94;4226814;34;20082;-68
2022/06/05 11:30:20;;;;;;;2.25;1.83;;;;;;;24.32;54.93;99347.22;4226176;34;20043;-69
2022/06/05 11:33:12;;;;;;;2.78;2.55;;;;;;;24.20;51.29;99318.47;4225080;34;20042;-68
2022/06/05 11:35:41;;;;;;;3.80;1.87;;;;;;;24.51;48.96;99333.81;4224237;34;20050;-68
2022/06/05 11:38:38;;;;;;;2.72;1.77;;;;;;;24.15;48.93;99335.19;4225464;34;20046;-68
2022/06/05 11:41:35;;;;;;;1.92;1.75;;;;;;;23.31;52.06;99326.62;4226519;34;20064;-68
2022/06/05 11:44:44;;;;;;;1.87;1.35;;;;;;;23.38;50.58;99327.75;4226607;34;20027;-69
2022/06/05 11:47:44;;;;;;;2.00;1.60;;;;;;;23.18;50.38;99315.53;4237008;33;20360;-69
2022/06/05 11:50:10;;;;;;;1.98;1.87;;;;;;;23.02;51.92;99289.69;4239428;33;20072;-68
2022/06/05 11:52:46;;;;;;;1.27;1.27;;;;;;;24.40;60.45;99316.91;4238153;33;20050;-68
2022/06/05 11:55:37;;;;;;;1.77;1.67;;;;;;;25.15;49.30;99323.56;4238987;33;20043;-68
2022/06/05 11:58:08;;;;;;;1.60;1.50;;;;;;;24.43;47.07;99287.91;4237976;33;20087;-68
2022/06/05 12:00:40;;;;;;;5.80;2.00;;;;;;;25.16;44.83;99281.06;4239756;33;20050;-69
2022/06/05 12:03:16;;;;;;;8.88;1.60;;;;;;;25.08;45.06;99310.34;4239458;33;20069;-67
2022/06/05 12:05:53;;;;;;;2.40;2.10;;;;;;;24.83;41.41;99273.66;4239995;33;20120;-67
2022/06/05 12:08:30;;;;;;;1.83;1.73;;;;;;;24.61;41.75;99307.87;4238863;33;20054;-69
2022/06/05 12:11:03;;;;;;;1.48;1.37;;;;;;;25.19;52.62;99305.19;4239988;33;20451;-68
2022/06/05 12:13:33;;;;;;;1.42;1.40;;;;;;;24.77;39.94;99272.25;4239373;33;20084;-69
2022/06/05 12:16:09;;;;;;;2.83;1.45;;;;;;;24.53;39.41;99309.50;4238940;33;20107;-69